NCAR-RAP Real-Time Weather Data

Output produced by METARs form (10 April 2020  06:24 UTC)
found at http://weather.rap.ucar.edu/surface/
 
KLND 100553Z AUTO 00000KT 10SM CLR 06/M04 A2996 RMK AO2 SLP130 T00561039 10144 20050 58001
KLND 100453Z AUTO 24010KT 10SM CLR 06/M04 A2997 RMK AO2 SLP134 T00611039
KLND 100353Z AUTO 20003KT 10SM CLR 07/M04 A2998 RMK AO2 SLP141 T00671039
KLND 100253Z AUTO 25009KT 10SM CLR 08/M04 A2996 RMK AO2 SLP138 T00831039 55001
KLND 100153Z AUTO 04005KT 10SM CLR 12/M05 A2995 RMK AO2 SLP129 T01171050
KLND 100053Z AUTO 00000KT 10SM CLR 13/M05 A2996 RMK AO2 SLP134 T01331050
KLND 092353Z AUTO 00000KT 10SM CLR 14/M05 A2997 RMK AO2 SLP132 T01391050 10144 20083 56024
KLND 092253Z AUTO 10005KT 10SM CLR 14/M06 A2999 RMK AO2 SLP139 T01391061
KLND 092153Z AUTO 10SM CLR 14/M06 A3002 RMK AO2 SLP149 T01391061
KLND 092053Z AUTO VRB03KT 10SM CLR 12/M05 A3005 RMK AO2 SLP164 T01221050 58028
KLND 091953Z AUTO 32003KT 10SM CLR 11/M05 A3009 RMK AO2 SLP177 T01061050
KLND 091853Z AUTO VRB04KT 10SM CLR 10/M04 A3012 RMK AO2 SLP186 T01001044
KLND 091753Z AUTO 00000KT 10SM CLR 08/M05 A3015 RMK AO2 SLP199 T00831050 10089 21017 58009
KLND 091653Z AUTO 01008KT 10SM CLR 08/M04 A3017 RMK AO2 SLP207 T00781039
KLND 091553Z AUTO VRB04KT 10SM CLR 06/M04 A3018 RMK AO2 SLP210 T00561039
KLND 091453Z AUTO 34006KT 10SM CLR 03/M03 A3018 RMK AO2 SLP215 T00281028 51014
KLND 091353Z AUTO 00000KT 10SM CLR 01/M03 A3017 RMK AO2 SLP208 T00111033
KLND 091253Z AUTO 33003KT 10SM CLR M01/M04 A3014 RMK AO2 SLP197 T10111044
KLND 091153Z AUTO 32006KT 10SM CLR 00/M04 A3013 RMK AO2 SLP184 T00001039 10050 21006 53002
KLND 091053Z AUTO 28006KT 10SM CLR 00/M03 A3013 RMK AO2 SLP184 T00001033
KLND 090953Z AUTO 08003KT 10SM CLR 01/M04 A3012 RMK AO2 SLP180 T00061039
KLND 090853Z AUTO 28005KT 10SM CLR 01/M03 A3013 RMK AO2 SLP184 T00111033 53002